KLHB/LHB METAR and TAF weather

Enter ICAO airport designator
Station Type Date Time Source
KLHB METAR 2021/03/01 03:55 UTC NOAA

KLHB 010355Z AUTO 36012G19KT 10SM OVC021 16/12 A2995 RMK AO2 T01580120


Station Type Date Time Source
KLHB Decoded METAR 2021/03/01 03:55 UTC NOAA

Hearne, Hearne Municipal Airport, TX, United States (KLHB) 30-52-18N 096-37-20W
Feb 28, 2021 - 10:55 PM EST / 2021.03.01 0355 UTC
Wind: from the N (360 degrees) at 14 MPH (12 KT) gusting to 22 MPH (19 KT):0
Visibility: 10 mile(s):0
Sky conditions: overcast
Temperature: 60.4 F (15.8 C)
Dew Point: 53.6 F (12.0 C)
Relative Humidity: 78%
Pressure (altimeter): 29.95 in. Hg (1014 hPa)
ob: KLHB 010355Z AUTO 36012G19KT 10SM OVC021 16/12 A2995 RMK AO2 T01580120
cycle: 4

Station Type Date Time Source
KLHB TAF UTC NOAA

Error!

Example: see airport list